sensor_id;sensor_type;location;lat;lon;timestamp;pressure;altitude;pressure_sealevel;temperature;humidity
52591;BME280;38483;42.620;25.394;2022-09-09T00:01:08;97336.16;;;19.39;61.03
52591;BME280;38483;42.620;25.394;2022-09-09T00:06:23;97332.16;;;19.23;61.08
52591;BME280;38483;42.620;25.394;2022-09-09T00:09:02;97323.31;;;18.78;61.99
52591;BME280;38483;42.620;25.394;2022-09-09T00:14:13;97310.59;;;18.61;63.16
52591;BME280;38483;42.620;25.394;2022-09-09T00:16:49;97329.72;;;18.74;62.69
52591;BME280;38483;42.620;25.394;2022-09-09T00:19:24;97332.50;;;18.84;62.23
52591;BME280;38483;42.620;25.394;2022-09-09T00:24:44;97352.91;;;18.80;62.06
52591;BME280;38483;42.620;25.394;2022-09-09T00:27:23;97336.56;;;18.88;61.17
52591;BME280;38483;42.620;25.394;2022-09-09T00:32:59;97320.59;;;18.91;60.81
52591;BME280;38483;42.620;25.394;2022-09-09T00:35:36;97337.94;;;19.04;60.36
52591;BME280;38483;42.620;25.394;2022-09-09T00:38:13;97346.00;;;18.79;61.09
52591;BME280;38483;42.620;25.394;2022-09-09T00:40:53;97352.28;;;18.77;61.37
52591;BME280;38483;42.620;25.394;2022-09-09T00:43:28;97349.00;;;18.62;61.28
52591;BME280;38483;42.620;25.394;2022-09-09T00:48:50;97356.63;;;18.29;62.30
52591;BME280;38483;42.620;25.394;2022-09-09T00:54:24;97354.84;;;17.43;65.65
52591;BME280;38483;42.620;25.394;2022-09-09T01:00:22;97331.75;;;16.97;68.56
52591;BME280;38483;42.620;25.394;2022-09-09T01:03:22;97341.19;;;17.00;69.20
52591;BME280;38483;42.620;25.394;2022-09-09T01:14:35;97330.22;;;16.68;70.69
52591;BME280;38483;42.620;25.394;2022-09-09T01:28:25;97316.88;;;16.85;69.58
52591;BME280;38483;42.620;25.394;2022-09-09T01:30:58;97313.34;;;16.99;69.19
52591;BME280;38483;42.620;25.394;2022-09-09T01:33:31;97291.78;;;16.95;68.66
52591;BME280;38483;42.620;25.394;2022-09-09T01:36:26;97300.47;;;17.21;68.54
52591;BME280;38483;42.620;25.394;2022-09-09T01:38:56;97303.22;;;17.57;67.72
52591;BME280;38483;42.620;25.394;2022-09-09T01:41:24;97305.59;;;17.85;66.18
52591;BME280;38483;42.620;25.394;2022-09-09T01:44:11;97309.22;;;17.96;65.50
52591;BME280;38483;42.620;25.394;2022-09-09T01:46:42;97302.59;;;18.15;64.98
52591;BME280;38483;42.620;25.394;2022-09-09T01:49:16;97305.56;;;18.22;64.12
52591;BME280;38483;42.620;25.394;2022-09-09T01:51:46;97303.03;;;18.33;63.96
52591;BME280;38483;42.620;25.394;2022-09-09T01:54:17;97303.53;;;18.38;63.44
52591;BME280;38483;42.620;25.394;2022-09-09T01:59:26;97304.34;;;18.38;63.32
52591;BME280;38483;42.620;25.394;2022-09-09T02:10:29;97293.53;;;16.95;67.55
52591;BME280;38483;42.620;25.394;2022-09-09T02:13:20;97302.88;;;16.99;67.48
52591;BME280;38483;42.620;25.394;2022-09-09T02:18:47;97294.41;;;17.08;66.42
52591;BME280;38483;42.620;25.394;2022-09-09T02:21:21;97293.09;;;16.76;67.29
52591;BME280;38483;42.620;25.394;2022-09-09T02:23:50;97277.56;;;16.34;68.56
52591;BME280;38483;42.620;25.394;2022-09-09T02:26:21;97293.44;;;16.30;69.13
52591;BME280;38483;42.620;25.394;2022-09-09T02:28:58;97286.16;;;16.62;68.74
52591;BME280;38483;42.620;25.394;2022-09-09T02:31:28;97281.91;;;16.86;67.46
52591;BME280;38483;42.620;25.394;2022-09-09T02:34:01;97292.81;;;16.93;66.99
52591;BME280;38483;42.620;25.394;2022-09-09T02:36:32;97289.81;;;16.60;68.39
52591;BME280;38483;42.620;25.394;2022-09-09T02:39:01;97302.69;;;16.49;69.05
52591;BME280;38483;42.620;25.394;2022-09-09T02:41:40;97292.19;;;16.23;69.94
52591;BME280;38483;42.620;25.394;2022-09-09T02:44:13;97285.19;;;15.83;71.65
52591;BME280;38483;42.620;25.394;2022-09-09T02:55:29;97307.81;;;16.38;70.87
52591;BME280;38483;42.620;25.394;2022-09-09T02:58:00;97291.50;;;16.73;69.82
52591;BME280;38483;42.620;25.394;2022-09-09T03:00:28;97294.53;;;16.67;69.55
52591;BME280;38483;42.620;25.394;2022-09-09T03:03:00;97297.19;;;16.26;70.83
52591;BME280;38483;42.620;25.394;2022-09-09T03:05:27;97294.63;;;16.12;71.48
52591;BME280;38483;42.620;25.394;2022-09-09T03:07:55;97304.16;;;15.99;72.09
52591;BME280;38483;42.620;25.394;2022-09-09T03:10:21;97303.25;;;16.00;71.88
52591;BME280;38483;42.620;25.394;2022-09-09T03:12:49;97302.41;;;16.00;71.67
52591;BME280;38483;42.620;25.394;2022-09-09T03:15:17;97316.31;;;16.00;72.44
52591;BME280;38483;42.620;25.394;2022-09-09T03:17:44;97302.03;;;15.92;72.83
52591;BME280;38483;42.620;25.394;2022-09-09T03:20:11;97294.59;;;15.86;72.94
52591;BME280;38483;42.620;25.394;2022-09-09T03:22:39;97290.19;;;16.00;72.70
52591;BME280;38483;42.620;25.394;2022-09-09T03:25:06;97300.06;;;15.95;72.89
52591;BME280;38483;42.620;25.394;2022-09-09T03:27:36;97311.19;;;15.99;72.64
52591;BME280;38483;42.620;25.394;2022-09-09T03:30:04;97302.28;;;16.01;72.95
52591;BME280;38483;42.620;25.394;2022-09-09T03:32:31;97307.47;;;15.89;72.94
52591;BME280;38483;42.620;25.394;2022-09-09T03:34:58;97305.97;;;15.85;74.15
52591;BME280;38483;42.620;25.394;2022-09-09T03:37:25;97312.41;;;15.79;73.60
52591;BME280;38483;42.620;25.394;2022-09-09T03:39:53;97312.63;;;15.76;73.70
52591;BME280;38483;42.620;25.394;2022-09-09T03:42:22;97311.28;;;15.83;73.71
52591;BME280;38483;42.620;25.394;2022-09-09T03:44:52;97305.03;;;15.86;73.40
52591;BME280;38483;42.620;25.394;2022-09-09T03:47:22;97301.97;;;15.79;73.20
52591;BME280;38483;42.620;25.394;2022-09-09T03:49:54;97308.13;;;15.92;72.82
52591;BME280;38483;42.620;25.394;2022-09-09T03:52:21;97312.91;;;16.12;72.07
52591;BME280;38483;42.620;25.394;2022-09-09T03:54:53;97319.50;;;16.32;71.28
52591;BME280;38483;42.620;25.394;2022-09-09T03:57:20;97325.25;;;16.37;70.82
52591;BME280;38483;42.620;25.394;2022-09-09T03:59:49;97337.66;;;16.48;70.34
52591;BME280;38483;42.620;25.394;2022-09-09T04:02:17;97345.22;;;16.52;70.00
52591;BME280;38483;42.620;25.394;2022-09-09T04:04:44;97338.03;;;16.56;70.29
52591;BME280;38483;42.620;25.394;2022-09-09T04:07:11;97337.28;;;16.54;69.68
52591;BME280;38483;42.620;25.394;2022-09-09T04:09:39;97342.75;;;16.63;69.22
52591;BME280;38483;42.620;25.394;2022-09-09T04:12:06;97343.44;;;16.39;69.39
52591;BME280;38483;42.620;25.394;2022-09-09T04:14:34;97342.22;;;16.17;70.27
52591;BME280;38483;42.620;25.394;2022-09-09T04:17:03;97343.19;;;16.02;71.06
52591;BME280;38483;42.620;25.394;2022-09-09T04:19:33;97336.31;;;15.73;71.53
52591;BME280;38483;42.620;25.394;2022-09-09T04:22:01;97332.94;;;15.71;72.00
52591;BME280;38483;42.620;25.394;2022-09-09T04:24:28;97333.09;;;15.40;73.81
52591;BME280;38483;42.620;25.394;2022-09-09T04:26:57;97318.06;;;15.29;74.08
52591;BME280;38483;42.620;25.394;2022-09-09T04:29:24;97331.63;;;15.50;74.03
52591;BME280;38483;42.620;25.394;2022-09-09T04:31:51;97321.28;;;15.48;73.93
52591;BME280;38483;42.620;25.394;2022-09-09T04:34:20;97321.19;;;15.50;74.54
52591;BME280;38483;42.620;25.394;2022-09-09T04:36:48;97317.75;;;15.64;73.92
52591;BME280;38483;42.620;25.394;2022-09-09T04:39:15;97320.06;;;15.82;73.39
52591;BME280;38483;42.620;25.394;2022-09-09T04:41:42;97327.13;;;16.08;72.36
52591;BME280;38483;42.620;25.394;2022-09-09T04:44:09;97315.78;;;16.63;70.51
52591;BME280;38483;42.620;25.394;2022-09-09T04:46:37;97319.44;;;17.12;68.73
52591;BME280;38483;42.620;25.394;2022-09-09T04:49:04;97324.25;;;17.56;67.54
52591;BME280;38483;42.620;25.394;2022-09-09T04:51:33;97323.38;;;17.93;66.81
52591;BME280;38483;42.620;25.394;2022-09-09T04:54:01;97314.59;;;18.18;65.67
52591;BME280;38483;42.620;25.394;2022-09-09T04:56:28;97317.06;;;18.44;64.74
52591;BME280;38483;42.620;25.394;2022-09-09T04:58:57;97316.78;;;18.60;63.52
52591;BME280;38483;42.620;25.394;2022-09-09T05:01:35;97308.25;;;18.69;63.21
52591;BME280;38483;42.620;25.394;2022-09-09T05:04:04;97312.00;;;18.89;62.92
52591;BME280;38483;42.620;25.394;2022-09-09T05:06:33;97320.88;;;18.99;62.38
52591;BME280;38483;42.620;25.394;2022-09-09T05:09:01;97310.25;;;19.00;62.65
52591;BME280;38483;42.620;25.394;2022-09-09T05:11:31;97321.28;;;19.16;61.99
52591;BME280;38483;42.620;25.394;2022-09-09T05:14:08;97313.47;;;19.38;61.56
52591;BME280;38483;42.620;25.394;2022-09-09T05:16:35;97322.94;;;19.41;60.84
52591;BME280;38483;42.620;25.394;2022-09-09T05:19:03;97311.34;;;19.55;60.96
52591;BME280;38483;42.620;25.394;2022-09-09T05:21:46;97320.53;;;19.49;60.91
52591;BME280;38483;42.620;25.394;2022-09-09T05:24:16;97324.59;;;19.42;61.12
52591;BME280;38483;42.620;25.394;2022-09-09T05:26:45;97314.06;;;19.42;61.10
52591;BME280;38483;42.620;25.394;2022-09-09T05:29:12;97314.44;;;19.48;61.62
52591;BME280;38483;42.620;25.394;2022-09-09T05:31:39;97314.69;;;19.57;60.94
52591;BME280;38483;42.620;25.394;2022-09-09T05:34:11;97307.53;;;19.70;60.97
52591;BME280;38483;42.620;25.394;2022-09-09T05:36:38;97296.41;;;19.66;60.33
52591;BME280;38483;42.620;25.394;2022-09-09T05:39:06;97309.69;;;19.54;60.69
52591;BME280;38483;42.620;25.394;2022-09-09T05:41:34;97302.84;;;19.40;61.40
52591;BME280;38483;42.620;25.394;2022-09-09T05:44:02;97308.72;;;19.77;60.94
52591;BME280;38483;42.620;25.394;2022-09-09T05:46:34;97298.66;;;19.93;60.35
52591;BME280;38483;42.620;25.394;2022-09-09T05:49:02;97297.13;;;20.23;59.94
52591;BME280;38483;42.620;25.394;2022-09-09T05:51:31;97302.06;;;20.49;59.13
52591;BME280;38483;42.620;25.394;2022-09-09T05:54:03;97292.78;;;20.65;58.17
52591;BME280;38483;42.620;25.394;2022-09-09T05:56:34;97297.06;;;20.98;57.81
52591;BME280;38483;42.620;25.394;2022-09-09T05:59:01;97299.25;;;21.04;56.92
52591;BME280;38483;42.620;25.394;2022-09-09T06:01:31;97308.22;;;20.90;57.08
52591;BME280;38483;42.620;25.394;2022-09-09T06:04:01;97304.94;;;21.09;56.97
52591;BME280;38483;42.620;25.394;2022-09-09T06:06:33;97298.00;;;21.29;56.41
52591;BME280;38483;42.620;25.394;2022-09-09T06:09:08;97298.69;;;21.51;55.51
52591;BME280;38483;42.620;25.394;2022-09-09T06:11:38;97302.06;;;21.63;55.05
52591;BME280;38483;42.620;25.394;2022-09-09T06:14:07;97292.91;;;21.57;54.87
52591;BME280;38483;42.620;25.394;2022-09-09T06:16:35;97305.53;;;21.84;54.03
52591;BME280;38483;42.620;25.394;2022-09-09T06:19:11;97312.63;;;21.93;53.77
52591;BME280;38483;42.620;25.394;2022-09-09T06:21:40;97305.88;;;22.00;53.72
52591;BME280;38483;42.620;25.394;2022-09-09T06:24:10;97302.13;;;22.03;54.42
52591;BME280;38483;42.620;25.394;2022-09-09T06:26:41;97303.66;;;22.05;54.03
52591;BME280;38483;42.620;25.394;2022-09-09T06:29:11;97303.53;;;22.07;54.01
52591;BME280;38483;42.620;25.394;2022-09-09T06:31:40;97305.66;;;22.22;53.33
52591;BME280;38483;42.620;25.394;2022-09-09T06:34:15;97298.25;;;22.07;53.15
52591;BME280;38483;42.620;25.394;2022-09-09T06:36:46;97311.38;;;22.27;53.38
52591;BME280;38483;42.620;25.394;2022-09-09T06:39:13;97321.78;;;22.38;53.19
52591;BME280;38483;42.620;25.394;2022-09-09T06:41:42;97321.84;;;22.57;51.87
52591;BME280;38483;42.620;25.394;2022-09-09T06:44:28;97313.69;;;22.60;51.81
52591;BME280;38483;42.620;25.394;2022-09-09T06:47:03;97312.72;;;22.81;51.71
52591;BME280;38483;42.620;25.394;2022-09-09T06:49:33;97307.50;;;22.41;51.53
52591;BME280;38483;42.620;25.394;2022-09-09T06:52:05;97307.34;;;22.23;52.62
52591;BME280;38483;42.620;25.394;2022-09-09T06:54:33;97296.13;;;21.70;53.24
52591;BME280;38483;42.620;25.394;2022-09-09T06:57:05;97303.94;;;22.02;52.68
52591;BME280;38483;42.620;25.394;2022-09-09T06:59:56;97291.69;;;21.92;52.59
52591;BME280;38483;42.620;25.394;2022-09-09T07:02:24;97295.66;;;22.26;52.04
52591;BME280;38483;42.620;25.394;2022-09-09T07:04:52;97297.38;;;22.55;50.85
52591;BME280;38483;42.620;25.394;2022-09-09T07:07:19;97298.81;;;22.79;49.55
52591;BME280;38483;42.620;25.394;2022-09-09T07:09:49;97284.28;;;22.44;50.97
52591;BME280;38483;42.620;25.394;2022-09-09T07:12:18;97293.53;;;22.79;50.71
52591;BME280;38483;42.620;25.394;2022-09-09T07:14:54;97296.84;;;23.09;50.88
52591;BME280;38483;42.620;25.394;2022-09-09T07:17:24;97302.94;;;23.48;49.80
52591;BME280;38483;42.620;25.394;2022-09-09T07:19:51;97298.47;;;23.49;49.03
52591;BME280;38483;42.620;25.394;2022-09-09T07:22:19;97304.59;;;23.49;48.88
52591;BME280;38483;42.620;25.394;2022-09-09T07:24:47;97312.94;;;23.54;49.29
52591;BME280;38483;42.620;25.394;2022-09-09T07:27:17;97308.69;;;23.71;48.30
52591;BME280;38483;42.620;25.394;2022-09-09T07:29:47;97323.56;;;23.81;48.99
52591;BME280;38483;42.620;25.394;2022-09-09T07:32:14;97318.69;;;23.86;48.81
52591;BME280;38483;42.620;25.394;2022-09-09T07:34:42;97329.19;;;24.15;48.27
52591;BME280;38483;42.620;25.394;2022-09-09T07:37:09;97313.19;;;24.07;47.92
52591;BME280;38483;42.620;25.394;2022-09-09T07:39:41;97321.72;;;23.91;48.13
52591;BME280;38483;42.620;25.394;2022-09-09T07:42:09;97324.53;;;23.34;49.55
52591;BME280;38483;42.620;25.394;2022-09-09T07:44:38;97329.25;;;23.40;49.20
52591;BME280;38483;42.620;25.394;2022-09-09T07:47:13;97331.88;;;23.40;49.83
52591;BME280;38483;42.620;25.394;2022-09-09T07:49:44;97328.97;;;23.43;49.75
52591;BME280;38483;42.620;25.394;2022-09-09T07:52:16;97329.78;;;23.53;49.50
52591;BME280;38483;42.620;25.394;2022-09-09T07:54:50;97327.44;;;23.87;48.77
52591;BME280;38483;42.620;25.394;2022-09-09T07:57:17;97330.75;;;23.52;48.87
52591;BME280;38483;42.620;25.394;2022-09-09T07:59:45;97327.09;;;23.63;48.87
52591;BME280;38483;42.620;25.394;2022-09-09T08:02:14;97319.00;;;23.64;48.54
52591;BME280;38483;42.620;25.394;2022-09-09T08:04:43;97330.75;;;23.52;48.42
52591;BME280;38483;42.620;25.394;2022-09-09T08:07:11;97315.88;;;23.88;47.16
52591;BME280;38483;42.620;25.394;2022-09-09T08:09:45;97314.09;;;24.15;46.61
52591;BME280;38483;42.620;25.394;2022-09-09T08:12:21;97324.66;;;24.25;47.08
52591;BME280;38483;42.620;25.394;2022-09-09T08:14:48;97312.78;;;24.29;46.47
52591;BME280;38483;42.620;25.394;2022-09-09T08:17:15;97302.53;;;24.44;46.35
52591;BME280;38483;42.620;25.394;2022-09-09T08:19:43;97305.03;;;23.81;48.14
52591;BME280;38483;42.620;25.394;2022-09-09T08:22:16;97301.09;;;24.04;46.76
52591;BME280;38483;42.620;25.394;2022-09-09T08:24:44;97295.78;;;23.68;48.69
52591;BME280;38483;42.620;25.394;2022-09-09T08:27:12;97278.44;;;23.46;48.51
52591;BME280;38483;42.620;25.394;2022-09-09T08:29:39;97260.03;;;23.54;48.14
52591;BME280;38483;42.620;25.394;2022-09-09T08:32:07;97275.41;;;24.14;47.52
52591;BME280;38483;42.620;25.394;2022-09-09T08:34:36;97279.19;;;24.02;48.38
52591;BME280;38483;42.620;25.394;2022-09-09T08:37:14;97271.97;;;24.04;48.79
52591;BME280;38483;42.620;25.394;2022-09-09T08:39:43;97276.91;;;23.80;49.26
52591;BME280;38483;42.620;25.394;2022-09-09T08:42:27;97273.31;;;23.81;49.91
52591;BME280;38483;42.620;25.394;2022-09-09T08:51:03;97266.53;;;24.86;47.15
52591;BME280;38483;42.620;25.394;2022-09-09T08:53:50;97256.88;;;24.77;47.52
52591;BME280;38483;42.620;25.394;2022-09-09T08:56:24;97270.94;;;24.95;47.06
52591;BME280;38483;42.620;25.394;2022-09-09T08:58:56;97262.25;;;24.22;48.69
52591;BME280;38483;42.620;25.394;2022-09-09T09:07:16;97264.22;;;24.83;47.07
52591;BME280;38483;42.620;25.394;2022-09-09T09:10:04;97255.19;;;24.76;47.83
52591;BME280;38483;42.620;25.394;2022-09-09T09:12:58;97260.38;;;24.68;48.28
52591;BME280;38483;42.620;25.394;2022-09-09T09:15:37;97261.63;;;24.73;48.41
52591;BME280;38483;42.620;25.394;2022-09-09T09:18:11;97260.16;;;25.14;46.90
52591;BME280;38483;42.620;25.394;2022-09-09T09:23:32;97248.16;;;25.53;46.48
52591;BME280;38483;42.620;25.394;2022-09-09T09:26:07;97247.50;;;25.08;47.09
52591;BME280;38483;42.620;25.394;2022-09-09T09:28:36;97235.41;;;25.31;47.10
52591;BME280;38483;42.620;25.394;2022-09-09T09:31:12;97242.69;;;24.68;47.84
52591;BME280;38483;42.620;25.394;2022-09-09T09:33:50;97236.34;;;25.22;46.97
52591;BME280;38483;42.620;25.394;2022-09-09T09:36:34;97236.25;;;25.57;46.57
52591;BME280;38483;42.620;25.394;2022-09-09T09:39:04;97238.00;;;25.74;45.87
52591;BME280;38483;42.620;25.394;2022-09-09T09:41:53;97236.78;;;25.61;46.51
52591;BME280;38483;42.620;25.394;2022-09-09T09:44:29;97236.84;;;25.77;46.37
52591;BME280;38483;42.620;25.394;2022-09-09T09:47:07;97232.81;;;26.07;46.33
52591;BME280;38483;42.620;25.394;2022-09-09T09:49:36;97235.63;;;26.05;45.64
52591;BME280;38483;42.620;25.394;2022-09-09T09:52:05;97231.56;;;26.19;46.22
52591;BME280;38483;42.620;25.394;2022-09-09T09:54:37;97236.06;;;26.26;45.06
52591;BME280;38483;42.620;25.394;2022-09-09T09:57:11;97227.78;;;26.45;44.99
52591;BME280;38483;42.620;25.394;2022-09-09T09:59:41;97223.03;;;26.07;45.78
52591;BME280;38483;42.620;25.394;2022-09-09T10:02:23;97215.75;;;25.67;46.76
52591;BME280;38483;42.620;25.394;2022-09-09T10:05:16;97228.78;;;25.95;45.46
52591;BME280;38483;42.620;25.394;2022-09-09T10:08:08;97211.66;;;25.81;45.80
52591;BME280;38483;42.620;25.394;2022-09-09T10:14:11;97217.97;;;26.38;44.53
52591;BME280;38483;42.620;25.394;2022-09-09T10:19:30;97217.81;;;26.39;45.12
52591;BME280;38483;42.620;25.394;2022-09-09T10:36:17;97195.38;;;26.34;46.25
52591;BME280;38483;42.620;25.394;2022-09-09T10:38:47;97201.72;;;26.33;47.09
52591;BME280;38483;42.620;25.394;2022-09-09T10:41:42;97194.53;;;26.17;46.93
52591;BME280;38483;42.620;25.394;2022-09-09T10:46:53;97194.59;;;26.41;46.27
52591;BME280;38483;42.620;25.394;2022-09-09T10:52:25;97186.13;;;26.94;44.98
52591;BME280;38483;42.620;25.394;2022-09-09T10:55:10;97179.97;;;26.70;45.58
52591;BME280;38483;42.620;25.394;2022-09-09T10:57:42;97187.81;;;26.79;45.58
52591;BME280;38483;42.620;25.394;2022-09-09T11:00:24;97178.81;;;26.48;45.99
52591;BME280;38483;42.620;25.394;2022-09-09T11:03:01;97182.81;;;26.68;46.42
52591;BME280;38483;42.620;25.394;2022-09-09T11:05:43;97189.13;;;26.83;45.54
52591;BME280;38483;42.620;25.394;2022-09-09T11:13:35;97175.78;;;27.23;44.42
52591;BME280;38483;42.620;25.394;2022-09-09T11:16:34;97169.38;;;26.78;45.68
52591;BME280;38483;42.620;25.394;2022-09-09T11:19:34;97158.25;;;26.50;46.34
52591;BME280;38483;42.620;25.394;2022-09-09T11:22:15;97155.59;;;26.74;46.68
52591;BME280;38483;42.620;25.394;2022-09-09T11:24:47;97162.16;;;27.18;45.34
52591;BME280;38483;42.620;25.394;2022-09-09T11:27:30;97164.53;;;26.81;45.09
52591;BME280;38483;42.620;25.394;2022-09-09T11:41:04;97127.56;;;27.43;44.06
52591;BME280;38483;42.620;25.394;2022-09-09T11:43:40;97128.50;;;27.50;44.25
52591;BME280;38483;42.620;25.394;2022-09-09T11:46:09;97144.88;;;27.30;44.39
52591;BME280;38483;42.620;25.394;2022-09-09T11:48:39;97129.34;;;26.95;44.82
52591;BME280;38483;42.620;25.394;2022-09-09T11:51:26;97121.22;;;27.44;43.97
52591;BME280;38483;42.620;25.394;2022-09-09T11:53:59;97122.06;;;27.75;43.62
52591;BME280;38483;42.620;25.394;2022-09-09T11:59:04;97105.75;;;27.78;43.50
52591;BME280;38483;42.620;25.394;2022-09-09T12:06:43;97110.50;;;27.60;43.58
52591;BME280;38483;42.620;25.394;2022-09-09T12:11:44;97106.22;;;27.51;43.88
52591;BME280;38483;42.620;25.394;2022-09-09T12:19:43;97100.28;;;27.41;43.66
52591;BME280;38483;42.620;25.394;2022-09-09T12:22:39;97088.97;;;27.47;44.01
52591;BME280;38483;42.620;25.394;2022-09-09T12:28:20;97080.31;;;27.45;44.09
52591;BME280;38483;42.620;25.394;2022-09-09T12:30:51;97078.84;;;27.73;43.92
52591;BME280;38483;42.620;25.394;2022-09-09T12:33:20;97076.56;;;27.62;43.56
52591;BME280;38483;42.620;25.394;2022-09-09T12:35:57;97075.63;;;27.55;44.18
52591;BME280;38483;42.620;25.394;2022-09-09T12:38:36;97075.63;;;27.55;44.47
52591;BME280;38483;42.620;25.394;2022-09-09T12:41:04;97063.88;;;27.33;44.77
52591;BME280;38483;42.620;25.394;2022-09-09T12:43:31;97062.22;;;27.71;43.82
52591;BME280;38483;42.620;25.394;2022-09-09T12:46:14;97064.09;;;27.85;43.00
52591;BME280;38483;42.620;25.394;2022-09-09T12:48:45;97054.38;;;28.00;43.54
52591;BME280;38483;42.620;25.394;2022-09-09T12:51:24;97058.59;;;28.17;42.92
52591;BME280;38483;42.620;25.394;2022-09-09T12:53:53;97042.44;;;28.18;43.03
52591;BME280;38483;42.620;25.394;2022-09-09T12:56:26;97049.56;;;27.95;42.70
52591;BME280;38483;42.620;25.394;2022-09-09T12:58:56;97053.34;;;28.24;42.32
52591;BME280;38483;42.620;25.394;2022-09-09T13:01:34;97039.66;;;28.12;42.55
52591;BME280;38483;42.620;25.394;2022-09-09T13:04:02;97053.97;;;28.11;42.75
52591;BME280;38483;42.620;25.394;2022-09-09T13:06:32;97049.00;;;28.08;42.38
52591;BME280;38483;42.620;25.394;2022-09-09T13:09:00;97047.31;;;27.84;43.48
52591;BME280;38483;42.620;25.394;2022-09-09T13:13:56;97041.25;;;27.68;43.01
52591;BME280;38483;42.620;25.394;2022-09-09T13:16:34;97038.66;;;27.60;44.10
52591;BME280;38483;42.620;25.394;2022-09-09T13:19:13;97036.72;;;27.76;43.62
52591;BME280;38483;42.620;25.394;2022-09-09T13:21:41;97028.84;;;27.83;43.32
52591;BME280;38483;42.620;25.394;2022-09-09T13:24:28;97032.06;;;28.01;43.29
52591;BME280;38483;42.620;25.394;2022-09-09T13:27:03;97034.59;;;27.94;43.28
52591;BME280;38483;42.620;25.394;2022-09-09T13:29:32;97041.44;;;27.89;43.18
52591;BME280;38483;42.620;25.394;2022-09-09T13:32:06;97035.25;;;27.74;43.54
52591;BME280;38483;42.620;25.394;2022-09-09T13:34:53;97034.28;;;27.89;43.03
52591;BME280;38483;42.620;25.394;2022-09-09T13:37:31;96994.88;;;27.85;43.22
52591;BME280;38483;42.620;25.394;2022-09-09T13:40:00;97018.75;;;28.01;42.66
52591;BME280;38483;42.620;25.394;2022-09-09T13:42:32;97008.63;;;27.74;43.31
52591;BME280;38483;42.620;25.394;2022-09-09T13:45:02;97023.63;;;27.67;43.46
52591;BME280;38483;42.620;25.394;2022-09-09T13:47:35;97016.66;;;28.11;43.19
52591;BME280;38483;42.620;25.394;2022-09-09T13:50:38;97024.13;;;27.93;42.39
52591;BME280;38483;42.620;25.394;2022-09-09T13:53:58;97027.59;;;27.71;43.23
52591;BME280;38483;42.620;25.394;2022-09-09T13:57:22;97009.16;;;27.92;43.28
52591;BME280;38483;42.620;25.394;2022-09-09T13:59:53;97010.31;;;27.97;43.08
52591;BME280;38483;42.620;25.394;2022-09-09T14:02:36;97002.47;;;28.18;42.72
52591;BME280;38483;42.620;25.394;2022-09-09T14:05:05;97001.78;;;28.02;42.91
52591;BME280;38483;42.620;25.394;2022-09-09T14:07:32;96999.78;;;28.04;42.80
52591;BME280;38483;42.620;25.394;2022-09-09T14:09:59;96994.63;;;27.80;43.06
52591;BME280;38483;42.620;25.394;2022-09-09T14:12:29;97001.31;;;27.68;44.02
52591;BME280;38483;42.620;25.394;2022-09-09T14:14:56;96995.41;;;27.80;44.13
52591;BME280;38483;42.620;25.394;2022-09-09T14:17:22;97001.88;;;27.63;44.50
52591;BME280;38483;42.620;25.394;2022-09-09T14:19:51;97003.59;;;27.79;43.34
52591;BME280;38483;42.620;25.394;2022-09-09T14:22:18;97004.00;;;27.68;43.57
52591;BME280;38483;42.620;25.394;2022-09-09T14:24:46;97010.03;;;27.62;43.56
52591;BME280;38483;42.620;25.394;2022-09-09T14:27:13;97001.31;;;27.45;44.02
52591;BME280;38483;42.620;25.394;2022-09-09T14:29:40;96996.88;;;27.37;43.88
52591;BME280;38483;42.620;25.394;2022-09-09T14:32:07;96968.34;;;27.23;43.79
52591;BME280;38483;42.620;25.394;2022-09-09T14:34:38;96996.13;;;27.52;44.10
52591;BME280;38483;42.620;25.394;2022-09-09T14:37:07;96991.44;;;27.54;44.29
52591;BME280;38483;42.620;25.394;2022-09-09T14:39:34;96989.63;;;27.54;42.97
52591;BME280;38483;42.620;25.394;2022-09-09T14:42:01;96991.50;;;27.46;43.67
52591;BME280;38483;42.620;25.394;2022-09-09T14:44:29;96995.97;;;27.53;43.23
52591;BME280;38483;42.620;25.394;2022-09-09T14:46:56;96991.81;;;27.51;42.89
52591;BME280;38483;42.620;25.394;2022-09-09T14:49:23;96992.16;;;27.70;43.08
52591;BME280;38483;42.620;25.394;2022-09-09T14:51:50;96993.34;;;27.68;43.01
52591;BME280;38483;42.620;25.394;2022-09-09T14:54:17;96996.78;;;27.54;43.03
52591;BME280;38483;42.620;25.394;2022-09-09T14:56:45;96995.00;;;27.46;43.32
52591;BME280;38483;42.620;25.394;2022-09-09T14:59:12;96988.72;;;27.39;43.65
52591;BME280;38483;42.620;25.394;2022-09-09T15:01:40;96992.22;;;27.39;43.12
52591;BME280;38483;42.620;25.394;2022-09-09T15:04:12;96995.22;;;27.36;43.64
52591;BME280;38483;42.620;25.394;2022-09-09T15:06:41;96993.03;;;27.40;43.15
52591;BME280;38483;42.620;25.394;2022-09-09T15:09:11;96997.72;;;27.38;43.47
52591;BME280;38483;42.620;25.394;2022-09-09T15:11:38;97003.88;;;27.38;43.68
52591;BME280;38483;42.620;25.394;2022-09-09T15:14:07;96994.53;;;27.43;43.31
52591;BME280;38483;42.620;25.394;2022-09-09T15:16:35;96995.53;;;27.33;42.86
52591;BME280;38483;42.620;25.394;2022-09-09T15:19:02;96992.84;;;27.42;42.63
52591;BME280;38483;42.620;25.394;2022-09-09T15:21:32;96988.06;;;27.29;43.21
52591;BME280;38483;42.620;25.394;2022-09-09T15:24:00;96989.16;;;27.20;43.48
52591;BME280;38483;42.620;25.394;2022-09-09T15:26:27;96991.75;;;27.28;43.14
52591;BME280;38483;42.620;25.394;2022-09-09T15:28:54;96991.03;;;27.42;42.85
52591;BME280;38483;42.620;25.394;2022-09-09T15:31:23;96993.88;;;27.41;42.95
52591;BME280;38483;42.620;25.394;2022-09-09T15:33:53;96990.03;;;27.43;42.60
52591;BME280;38483;42.620;25.394;2022-09-09T15:36:32;96990.84;;;27.44;43.20
52591;BME280;38483;42.620;25.394;2022-09-09T15:39:00;96983.56;;;27.37;42.90